Time;durP1;ratioP1;P1;durP2;ratioP2;P2;SDS_P1;SDS_P2;PMS_P1;PMS_P2;Temp;Humidity;BMP_temperature;BMP_pressure;BME280_temperature;BME280_humidity;BME280_pressure;Samples;Min_cycle;Max_cycle;Signal;HPM_P1;HPM_P2
2021/09/06 00:02:11;;;;;;;;;3.33;2.67;;;;;18.26;44.93;99365.66;4952625;28;102768;-82
2021/09/06 00:04:39;;;;;;;;;3.00;3.00;;;;;18.25;45.91;99373.03;4928128;28;104357;-83
2021/09/06 00:07:06;;;;;;;;;4.00;4.00;;;;;18.23;45.38;99372.44;4942197;28;102330;-83
2021/09/06 00:09:33;;;;;;;;;4.00;4.00;;;;;18.22;45.93;99369.94;4948602;28;102358;-82
2021/09/06 00:12:01;;;;;;;;;5.00;4.00;;;;;18.18;45.60;99375.03;4944330;28;102473;-82
2021/09/06 00:14:28;;;;;;;;;5.00;5.00;;;;;18.20;45.56;99372.03;4956025;28;104411;-82
2021/09/06 00:16:55;;;;;;;;;3.67;3.00;;;;;18.19;45.56;99375.88;4937955;28;102749;-83
2021/09/06 00:19:24;;;;;;;;;5.00;4.00;;;;;18.19;45.69;99375.88;4957173;28;103665;-82
2021/09/06 00:21:51;;;;;;;;;4.00;4.00;;;;;18.18;45.52;99376.94;4951983;28;102573;-82
2021/09/06 00:24:18;;;;;;;;;4.00;4.00;;;;;18.16;45.87;99384.53;4964502;28;109659;-83
2021/09/06 00:26:45;;;;;;;;;4.33;4.00;;;;;18.14;45.78;99379.31;4963230;28;103455;-82
2021/09/06 00:29:12;;;;;;;;;4.00;3.00;;;;;18.13;45.84;99385.00;4975611;27;102677;-82
2021/09/06 00:31:40;;;;;;;;;3.67;3.67;;;;;18.11;45.73;99374.28;4970334;28;103950;-83
2021/09/06 00:34:07;;;;;;;;;4.67;4.00;;;;;18.08;44.94;99373.91;4972898;28;105170;-82
2021/09/06 00:36:35;;;;;;;;;3.00;3.00;;;;;18.06;45.31;99370.53;4971773;28;102871;-82
2021/09/06 00:39:01;;;;;;;;;6.00;5.00;;;;;18.04;45.61;99379.00;4963199;27;102567;-82
2021/09/06 00:41:28;;;;;;;;;5.00;4.00;;;;;18.01;45.82;99382.19;4975321;27;102718;-82
2021/09/06 00:43:55;;;;;;;;;4.00;4.00;;;;;18.00;44.99;99376.97;4973918;28;104050;-82
2021/09/06 00:46:23;;;;;;;;;5.00;4.00;;;;;17.99;45.44;99373.38;4976716;27;102621;-83
2021/09/06 00:48:50;;;;;;;;;5.00;4.67;;;;;17.98;44.88;99371.72;4963193;28;110635;-82
2021/09/06 00:51:17;;;;;;;;;4.00;4.00;;;;;17.98;45.75;99379.06;4974737;28;102663;-82
2021/09/06 00:53:44;;;;;;;;;6.00;5.00;;;;;17.97;45.75;99380.13;4951879;28;104164;-83
2021/09/06 00:56:11;;;;;;;;;4.00;4.00;;;;;17.93;44.61;99382.50;4971492;28;103024;-82
2021/09/06 00:58:38;;;;;;;;;5.00;4.00;;;;;17.92;44.74;99380.03;4971641;28;102375;-83
2021/09/06 01:01:05;;;;;;;;;5.00;4.00;;;;;17.91;44.26;99386.53;4959405;28;104398;-83
2021/09/06 01:03:32;;;;;;;;;3.00;3.00;;;;;17.87;44.85;99383.44;4969336;28;104183;-83
2021/09/06 01:05:59;;;;;;;;;6.00;4.00;;;;;17.84;45.50;99384.72;4950179;28;102499;-82
2021/09/06 01:08:27;;;;;;;;;4.00;4.00;;;;;17.82;45.59;99384.13;4962619;28;102795;-82
2021/09/06 01:10:54;;;;;;;;;5.67;4.00;;;;;17.82;45.01;99383.28;4971212;28;102291;-82
2021/09/06 01:13:21;;;;;;;;;5.00;5.00;;;;;17.81;44.81;99385.19;4964905;27;105398;-82
2021/09/06 01:15:48;;;;;;;;;4.00;4.00;;;;;17.82;44.50;99381.38;4970935;27;102659;-82
2021/09/06 01:18:15;;;;;;;;;4.00;4.00;;;;;17.80;44.91;99378.03;4958379;28;102258;-82
2021/09/06 01:20:42;;;;;;;;;5.00;4.00;;;;;17.79;45.27;99378.25;4953182;28;102794;-82
2021/09/06 01:23:10;;;;;;;;;5.00;4.33;;;;;17.78;45.00;99377.44;4974050;27;104236;-82
2021/09/06 01:25:37;;;;;;;;;5.00;4.00;;;;;17.76;44.78;99382.28;4973653;28;102485;-82
2021/09/06 01:28:04;;;;;;;;;4.33;4.33;;;;;17.74;44.76;99370.72;4965350;27;102732;-82
2021/09/06 01:30:31;;;;;;;;;4.00;3.67;;;;;17.71;44.89;99375.81;4969236;28;102521;-82
2021/09/06 01:32:58;;;;;;;;;4.00;4.00;;;;;17.69;44.40;99369.75;4978348;27;104368;-83
2021/09/06 01:35:25;;;;;;;;;4.00;3.67;;;;;17.66;45.21;99365.56;4973544;27;102477;-82
2021/09/06 01:37:52;;;;;;;;;5.00;5.00;;;;;17.65;45.15;99368.56;4967692;28;102867;-82
2021/09/06 01:40:20;;;;;;;;;4.00;3.00;;;;;17.62;45.18;99372.56;4969786;28;103002;-82
2021/09/06 01:42:47;;;;;;;;;1.67;1.33;;;;;17.60;45.35;99371.97;4968939;27;104304;-82
2021/09/06 01:45:14;;;;;;;;;6.00;3.00;;;;;17.59;44.92;99378.50;4980776;27;102386;-82
2021/09/06 01:47:41;;;;;;;;;6.00;5.00;;;;;17.59;45.02;99374.91;4963039;27;103566;-82
2021/09/06 01:50:08;;;;;;;;;5.00;5.00;;;;;17.57;45.10;99371.53;4974346;27;112092;-82
2021/09/06 01:52:36;;;;;;;;;6.00;4.67;;;;;17.56;45.25;99373.44;4975014;27;104115;-82
2021/09/06 01:55:03;;;;;;;;;5.67;4.67;;;;;17.54;43.95;99370.09;4971434;27;103586;-82
2021/09/06 01:57:31;;;;;;;;;6.00;5.00;;;;;17.51;44.46;99367.00;4977854;27;102771;-82
2021/09/06 01:59:58;;;;;;;;;6.00;4.00;;;;;17.49;44.83;99375.41;4976423;28;104295;-82
2021/09/06 02:02:25;;;;;;;;;5.67;5.00;;;;;17.48;45.25;99368.25;4972866;27;110213;-82
2021/09/06 02:04:52;;;;;;;;;5.67;5.00;;;;;17.46;44.13;99369.56;4973475;28;103862;-82
2021/09/06 02:07:19;;;;;;;;;5.67;3.33;;;;;17.47;44.19;99377.53;4976171;27;102518;-83
2021/09/06 02:09:45;;;;;;;;;5.67;5.67;;;;;17.45;44.15;99374.19;4973155;28;103752;-82
2021/09/06 02:12:12;;;;;;;;;6.00;5.00;;;;;17.43;44.85;99373.56;4974114;28;104435;-83
2021/09/06 02:14:39;;;;;;;;;4.00;3.00;;;;;17.42;44.74;99383.66;4979205;27;102528;-82
2021/09/06 02:17:06;;;;;;;;;4.33;4.00;;;;;17.39;44.72;99370.47;4965131;28;102738;-82
2021/09/06 02:19:33;;;;;;;;;3.33;3.00;;;;;17.39;44.51;99380.56;4981047;28;102757;-83
2021/09/06 02:22:00;;;;;;;;;5.00;5.00;;;;;17.37;44.63;99383.53;4967803;27;104173;-82
2021/09/06 02:24:28;;;;;;;;;6.67;5.00;;;;;17.38;43.90;99376.19;4975560;28;102423;-82
2021/09/06 02:26:55;;;;;;;;;5.00;4.33;;;;;17.33;44.48;99379.59;4972495;27;102662;-82
2021/09/06 02:29:22;;;;;;;;;6.33;6.00;;;;;17.32;44.39;99377.06;4970274;27;102674;-82
2021/09/06 02:31:49;;;;;;;;;6.00;5.00;;;;;17.31;44.52;99387.16;4968619;28;103913;-82
2021/09/06 02:34:16;;;;;;;;;5.00;5.00;;;;;17.31;44.87;99378.13;4977474;28;103985;-82
2021/09/06 02:36:43;;;;;;;;;4.00;4.00;;;;;17.29;44.53;99383.00;4966020;28;102680;-82
2021/09/06 02:39:10;;;;;;;;;5.00;4.00;;;;;17.27;45.22;99380.47;4979778;27;102842;-82
2021/09/06 02:41:36;;;;;;;;;7.00;5.00;;;;;17.24;44.32;99380.09;4975942;27;104336;-82
2021/09/06 02:44:04;;;;;;;;;5.00;4.00;;;;;17.25;44.30;99376.28;4963379;28;102635;-82
2021/09/06 02:46:31;;;;;;;;;7.33;5.33;;;;;17.23;44.84;99378.41;4973410;28;102448;-82
2021/09/06 02:48:58;;;;;;;;;6.00;5.00;;;;;17.21;44.32;99378.63;4977652;27;102515;-82
2021/09/06 02:51:24;;;;;;;;;4.00;4.00;;;;;17.22;44.60;99382.22;4970657;28;109595;-82
2021/09/06 02:53:51;;;;;;;;;4.00;3.00;;;;;17.21;43.78;99383.25;4972259;28;103174;-82
2021/09/06 02:56:18;;;;;;;;;4.00;4.00;;;;;17.20;44.53;99382.41;4965683;27;102646;-82
2021/09/06 02:58:45;;;;;;;;;5.00;4.33;;;;;17.18;43.89;99390.03;4975342;28;102924;-82
2021/09/06 03:01:12;;;;;;;;;4.33;4.33;;;;;17.17;44.58;99391.06;4975414;28;104393;-83
2021/09/06 03:03:39;;;;;;;;;5.33;5.00;;;;;17.14;44.12;99386.06;4972987;28;103182;-82
2021/09/06 03:06:08;;;;;;;;;6.00;5.00;;;;;17.13;44.16;99378.94;4970000;28;102416;-82
2021/09/06 03:08:35;;;;;;;;;3.67;3.67;;;;;17.12;43.59;99379.13;4980549;27;102735;-82
2021/09/06 03:11:02;;;;;;;;;4.67;3.67;;;;;17.09;43.33;99379.59;4974563;27;105894;-82
2021/09/06 03:13:30;;;;;;;;;4.67;4.67;;;;;17.09;44.26;99380.44;4978582;28;105764;-82
2021/09/06 03:15:57;;;;;;;;;4.00;4.00;;;;;17.07;43.82;99378.97;4981185;28;102865;-82
2021/09/06 03:18:24;;;;;;;;;4.00;3.67;;;;;17.05;44.33;99362.81;4973220;28;102634;-82
2021/09/06 03:20:50;;;;;;;;;5.67;4.67;;;;;17.06;44.27;99374.59;4969292;28;104556;-82
2021/09/06 03:23:17;;;;;;;;;5.33;4.67;;;;;17.04;44.00;99360.31;4977282;28;102688;-82
2021/09/06 03:25:44;;;;;;;;;4.00;4.00;;;;;17.04;44.44;99368.50;4963884;27;104860;-82
2021/09/06 03:28:11;;;;;;;;;6.00;5.00;;;;;17.02;43.88;99373.38;4958024;28;104180;-82
2021/09/06 03:30:38;;;;;;;;;4.00;4.00;;;;;17.00;43.67;99364.53;4969454;27;104868;-82
2021/09/06 03:33:05;;;;;;;;;5.00;4.00;;;;;16.99;44.32;99362.88;4960452;28;103284;-82
2021/09/06 03:35:32;;;;;;;;;4.00;3.00;;;;;16.98;43.15;99366.66;4969153;28;102158;-82
2021/09/06 03:37:59;;;;;;;;;5.25;3.75;;;;;16.97;43.67;99365.00;4976146;28;102612;-82
2021/09/06 03:40:26;;;;;;;;;5.00;4.67;;;;;16.95;42.97;99368.78;4962062;28;109959;-82
2021/09/06 03:42:53;;;;;;;;;5.00;5.00;;;;;16.94;44.00;99358.91;4977361;27;104014;-82
2021/09/06 03:45:19;;;;;;;;;4.00;4.00;;;;;16.93;43.78;99370.09;4957910;27;103502;-82
2021/09/06 03:47:46;;;;;;;;;5.00;4.67;;;;;16.93;43.46;99364.63;4965604;28;102318;-82
2021/09/06 03:50:13;;;;;;;;;4.50;4.50;;;;;16.90;43.00;99363.16;4975248;28;104228;-82
2021/09/06 03:52:40;;;;;;;;;6.00;5.25;;;;;16.90;43.36;99365.03;4972986;27;102591;-82
2021/09/06 03:55:07;;;;;;;;;4.00;4.00;;;;;16.90;43.01;99365.03;4972218;28;102712;-82
2021/09/06 03:57:35;;;;;;;;;5.00;4.00;;;;;16.88;43.77;99367.19;4975791;27;102832;-82
2021/09/06 04:00:03;;;;;;;;;4.00;3.00;;;;;16.86;43.20;99369.28;4968179;28;104042;-82
2021/09/06 04:02:30;;;;;;;;;6.50;4.75;;;;;16.84;42.92;99366.75;4958953;28;102140;-82
2021/09/06 04:04:59;;;;;;;;;4.00;4.00;;;;;16.84;43.31;99368.69;4971346;27;102586;-82
2021/09/06 04:07:26;;;;;;;;;5.00;5.00;;;;;16.81;43.58;99361.75;4956515;28;103723;-82
2021/09/06 04:09:53;;;;;;;;;2.00;1.00;;;;;16.79;43.76;99363.88;4980999;27;104075;-82
2021/09/06 04:12:21;;;;;;;;;5.00;4.00;;;;;16.78;44.24;99359.47;4971179;28;102474;-82
2021/09/06 04:14:48;;;;;;;;;5.00;4.75;;;;;16.79;43.94;99363.88;4971422;28;102445;-81
2021/09/06 04:17:15;;;;;;;;;5.00;4.25;;;;;16.75;43.29;99373.56;4980161;27;102484;-82
2021/09/06 04:19:42;;;;;;;;;5.00;3.67;;;;;16.76;43.39;99375.25;4957424;28;104380;-82
2021/09/06 04:22:09;;;;;;;;;2.00;2.00;;;;;16.77;43.33;99374.19;4976083;28;103664;-82
2021/09/06 04:24:36;;;;;;;;;6.00;5.00;;;;;16.75;43.79;99373.56;4980213;27;102456;-82
2021/09/06 04:27:03;;;;;;;;;4.00;4.00;;;;;16.72;42.96;99378.63;4976618;28;103885;-82
2021/09/06 04:29:30;;;;;;;;;5.00;4.00;;;;;16.71;43.42;99380.53;4978121;28;103733;-82
2021/09/06 04:31:57;;;;;;;;;5.00;3.75;;;;;16.72;42.94;99376.75;4964997;27;103001;-82
2021/09/06 04:34:24;;;;;;;;;4.00;3.00;;;;;16.70;43.15;99375.31;4957123;28;103585;-82
2021/09/06 04:36:51;;;;;;;;;6.75;4.75;;;;;16.68;43.56;99372.78;4974750;28;102530;-82
2021/09/06 04:39:17;;;;;;;;;4.00;4.00;;;;;16.68;43.09;99380.97;4979292;28;104062;-82
2021/09/06 04:41:44;;;;;;;;;4.00;4.00;;;;;16.68;42.75;99386.44;4972534;28;103500;-82
2021/09/06 04:44:11;;;;;;;;;5.00;3.75;;;;;16.68;42.99;99380.13;4973596;28;102652;-82
2021/09/06 04:46:38;;;;;;;;;3.50;3.00;;;;;16.67;42.37;99387.50;4980947;27;102612;-82
2021/09/06 04:49:05;;;;;;;;;6.00;4.50;;;;;16.67;43.68;99389.38;4970873;28;104042;-82
2021/09/06 04:51:32;;;;;;;;;3.67;3.33;;;;;16.63;42.82;99389.00;4977215;27;103472;-82
2021/09/06 04:53:59;;;;;;;;;4.33;4.33;;;;;16.62;43.65;99384.59;4980166;28;102725;-82
2021/09/06 04:56:26;;;;;;;;;4.00;4.00;;;;;16.62;43.33;99384.59;4970947;28;102864;-82
2021/09/06 04:58:52;;;;;;;;;2.67;2.67;;;;;16.62;43.17;99394.66;4973158;28;104079;-82
2021/09/06 05:01:19;;;;;;;;;5.75;4.00;;;;;16.60;43.65;99397.63;4969802;28;102415;-82
2021/09/06 05:03:47;;;;;;;;;4.00;4.00;;;;;16.58;43.46;99397.00;4965141;28;103821;-82
2021/09/06 05:06:14;;;;;;;;;6.00;4.00;;;;;16.57;42.41;99394.50;4973575;27;102683;-82
2021/09/06 05:08:41;;;;;;;;;3.00;3.00;;;;;16.58;43.64;99387.97;4974255;27;104095;-82
2021/09/06 05:11:08;;;;;;;;;5.00;4.25;;;;;16.56;43.30;99407.28;4959298;27;102725;-82
2021/09/06 05:13:34;;;;;;;;;4.00;3.00;;;;;16.52;42.77;99406.06;4972094;27;102540;-82
2021/09/06 05:16:01;;;;;;;;;4.50;3.00;;;;;16.53;43.07;99403.09;4961774;28;104040;-82
2021/09/06 05:18:28;;;;;;;;;6.75;5.00;;;;;16.53;43.27;99414.00;4979198;28;109032;-82
2021/09/06 05:20:56;;;;;;;;;4.50;4.00;;;;;16.50;43.04;99406.28;4978716;27;102607;-82
2021/09/06 05:23:23;;;;;;;;;3.33;3.33;;;;;16.53;42.83;99407.72;4946472;28;102774;-82
2021/09/06 05:25:49;;;;;;;;;3.50;3.00;;;;;16.55;43.05;99415.69;4951003;28;102612;-82
2021/09/06 05:28:16;;;;;;;;;3.00;2.00;;;;;16.51;43.12;99409.84;4957553;28;104371;-82
2021/09/06 05:30:43;;;;;;;;;6.00;3.00;;;;;16.51;42.68;99421.59;4957762;28;103777;-82
2021/09/06 05:33:10;;;;;;;;;2.75;2.75;;;;;16.51;43.62;99415.31;4958953;28;102235;-82
2021/09/06 05:35:37;;;;;;;;;4.00;4.00;;;;;16.51;43.04;99423.50;4957696;28;102564;-82
2021/09/06 05:38:04;;;;;;;;;4.00;3.00;;;;;16.48;43.07;99422.03;4935931;28;104277;-82
2021/09/06 05:40:32;;;;;;;;;3.00;3.00;;;;;16.46;43.26;99417.84;4965929;28;103013;-82
2021/09/06 05:42:59;;;;;;;;;4.00;3.33;;;;;16.46;42.96;99421.41;4952910;28;102636;-82
2021/09/06 05:45:25;;;;;;;;;3.67;2.33;;;;;16.45;43.27;99416.16;4955472;28;103384;-82
2021/09/06 05:47:52;;;;;;;;;4.00;3.67;;;;;16.42;42.53;99416.63;4963929;28;104265;-82
2021/09/06 05:50:19;;;;;;;;;4.75;4.00;;;;;16.43;43.46;99416.41;4957433;28;103282;-82
2021/09/06 05:52:46;;;;;;;;;4.25;4.00;;;;;16.43;42.98;99412.84;4964059;28;102257;-82
2021/09/06 05:55:13;;;;;;;;;3.00;3.00;;;;;16.42;43.20;99419.34;4942589;28;104831;-82
2021/09/06 05:57:40;;;;;;;;;3.50;2.50;;;;;16.41;43.05;99414.94;4931171;28;104281;-82
2021/09/06 06:00:07;;;;;;;;;4.25;3.75;;;;;16.40;42.96;99413.25;4957676;28;102403;-82
2021/09/06 06:02:35;;;;;;;;;4.00;3.00;;;;;16.41;43.52;99412.22;4958168;28;102451;-82
2021/09/06 06:05:03;;;;;;;;;3.75;3.25;;;;;16.42;42.96;99419.34;4960480;28;102542;-82
2021/09/06 06:07:31;;;;;;;;;4.00;3.75;;;;;16.42;43.05;99416.63;4958091;28;108734;-82
2021/09/06 06:09:58;;;;;;;;;3.00;3.00;;;;;16.42;43.04;99413.88;4957109;28;102873;-82
2021/09/06 06:12:28;;;;;;;;;3.50;3.50;;;;;16.43;43.17;99415.56;4954369;28;105776;-82
2021/09/06 06:14:55;;;;;;;;;3.00;3.00;;;;;16.42;42.59;99411.16;4961476;28;102542;-82
2021/09/06 06:17:22;;;;;;;;;4.00;4.00;;;;;16.43;43.33;99418.31;4955065;28;105047;-82
2021/09/06 06:19:49;;;;;;;;;4.00;3.00;;;;;16.43;43.17;99418.31;4951262;28;102363;-82
2021/09/06 06:22:16;;;;;;;;;5.50;4.75;;;;;16.41;43.78;99409.47;4954890;28;102412;-82
2021/09/06 06:24:43;;;;;;;;;5.00;4.00;;;;;16.42;43.32;99411.16;4965513;28;102228;-82
2021/09/06 06:27:10;;;;;;;;;4.75;4.00;;;;;16.43;43.00;99412.84;4981119;28;103923;-82
2021/09/06 06:29:37;;;;;;;;;4.75;3.00;;;;;16.43;43.19;99412.84;4989542;27;102213;-82
2021/09/06 06:32:04;;;;;;;;;4.00;3.00;;;;;16.48;43.62;99413.00;4972614;28;102624;-82
2021/09/06 06:34:31;;;;;;;;;4.00;3.00;;;;;16.44;43.34;99412.59;4982469;27;103628;-82
2021/09/06 06:36:58;;;;;;;;;2.50;2.50;;;;;16.45;43.47;99410.72;4961718;28;104058;-82
2021/09/06 06:39:25;;;;;;;;;4.25;4.00;;;;;16.41;43.58;99415.78;4968399;28;102686;-82
2021/09/06 06:41:52;;;;;;;;;4.00;4.00;;;;;16.45;43.73;99427.94;4981149;27;102218;-82
2021/09/06 06:44:19;;;;;;;;;4.75;4.25;;;;;16.45;43.48;99425.19;4977288;28;102666;-82
2021/09/06 06:46:46;;;;;;;;;4.00;4.00;;;;;16.47;43.91;99433.19;4979016;28;104087;-82
2021/09/06 06:49:12;;;;;;;;;6.00;4.00;;;;;16.44;43.76;99428.97;4963606;28;102134;-82
2021/09/06 06:51:39;;;;;;;;;3.50;3.50;;;;;16.42;43.91;99433.84;4982175;27;102776;-82
2021/09/06 06:54:06;;;;;;;;;3.75;3.00;;;;;16.44;44.32;99433.59;4956986;28;102787;-82
2021/09/06 06:56:33;;;;;;;;;3.33;3.00;;;;;16.46;44.59;99431.50;4987579;28;104067;-82
2021/09/06 06:59:00;;;;;;;;;2.33;2.33;;;;;16.46;44.56;99439.69;4972389;27;102376;-82
2021/09/06 07:01:27;;;;;;;;;3.00;3.00;;;;;16.47;44.44;99447.66;4973316;27;102619;-82
2021/09/06 07:03:54;;;;;;;;;5.33;3.67;;;;;16.46;44.70;99440.53;4981051;28;102400;-82
2021/09/06 07:06:22;;;;;;;;;2.00;2.00;;;;;16.50;44.68;99449.13;4978359;27;103810;-82
2021/09/06 07:08:48;;;;;;;;;3.67;2.00;;;;;16.50;44.72;99447.22;4971460;28;102855;-82
2021/09/06 07:11:15;;;;;;;;;4.00;3.00;;;;;16.53;44.82;99446.78;4983232;28;102575;-82
2021/09/06 07:13:42;;;;;;;;;3.33;3.00;;;;;16.55;45.19;99446.56;4968444;28;102370;-82
2021/09/06 07:16:09;;;;;;;;;2.33;2.00;;;;;16.59;44.74;99456.03;4955624;28;104680;-82
2021/09/06 07:18:36;;;;;;;;;3.50;3.00;;;;;16.61;45.73;99458.53;4968605;28;102601;-82
2021/09/06 07:21:03;;;;;;;;;3.00;3.00;;;;;16.61;45.70;99456.66;4974360;27;112531;-82
2021/09/06 07:23:30;;;;;;;;;2.00;2.00;;;;;16.60;45.14;99457.72;4976758;28;102643;-82
2021/09/06 07:25:57;;;;;;;;;3.00;2.00;;;;;16.62;45.08;99457.47;4976042;28;104319;-82
2021/09/06 07:28:24;;;;;;;;;3.33;2.00;;;;;16.65;45.94;99460.63;4969085;28;104037;-82
2021/09/06 07:30:51;;;;;;;;;2.00;2.00;;;;;16.66;45.10;99461.47;4977203;27;102398;-82
2021/09/06 07:33:18;;;;;;;;;1.00;1.00;;;;;16.66;45.75;99461.47;4977736;28;102474;-82
2021/09/06 07:35:44;;;;;;;;;2.00;2.00;;;;;16.68;46.14;99464.78;4971610;28;104109;-82
2021/09/06 07:38:11;;;;;;;;;2.25;2.00;;;;;16.71;45.80;99469.81;4970432;28;102513;-82
2021/09/06 07:40:38;;;;;;;;;2.00;2.00;;;;;16.72;45.94;99452.38;4979543;28;102279;-82
2021/09/06 07:43:05;;;;;;;;;1.33;1.33;;;;;16.73;46.29;99468.56;4977526;28;102761;-82
2021/09/06 07:45:32;;;;;;;;;3.00;3.00;;;;;16.74;45.89;99456.56;4979943;28;105030;-82
2021/09/06 07:47:59;;;;;;;;;2.00;2.00;;;;;16.76;45.98;99468.09;4976146;28;102656;-82
2021/09/06 07:50:26;;;;;;;;;1.67;1.00;;;;;16.78;46.02;99470.63;4966655;28;102574;-82
2021/09/06 07:52:53;;;;;;;;;2.00;2.00;;;;;16.82;46.36;99463.66;4980155;28;102802;-82
2021/09/06 07:55:20;;;;;;;;;3.33;2.00;;;;;16.83;45.65;99463.44;4973268;28;104062;-82
2021/09/06 07:57:47;;;;;;;;;1.00;1.00;;;;;16.84;45.82;99462.38;4972311;28;102575;-82
2021/09/06 08:00:14;;;;;;;;;2.00;2.00;;;;;16.85;45.70;99461.31;4983946;28;102484;-82
2021/09/06 08:02:49;;;;;;;;;2.00;2.00;;;;;16.88;46.23;99469.09;4984334;28;102283;-82
2021/09/06 08:05:23;;;;;;;;;2.33;2.00;;;;;16.89;46.32;99468.00;4950295;28;104058;-82
2021/09/06 08:07:52;;;;;;;;;1.00;1.00;;;;;16.91;46.71;99476.84;4971117;28;107052;-82
2021/09/06 08:10:19;;;;;;;;;1.67;1.67;;;;;16.93;45.69;99474.72;4977628;28;106024;-82
2021/09/06 08:12:46;;;;;;;;;1.33;1.00;;;;;16.97;45.98;99471.56;4974829;28;102658;-82
2021/09/06 08:15:13;;;;;;;;;1.33;1.00;;;;;17.00;45.45;99479.31;4981634;28;105600;-82
2021/09/06 08:17:40;;;;;;;;;1.00;1.00;;;;;17.02;46.26;99472.53;4983326;28;103727;-82
2021/09/06 08:20:09;;;;;;;;;1.67;1.00;;;;;17.04;46.17;99477.78;4979394;28;102466;-82
2021/09/06 08:22:36;;;;;;;;;1.00;1.00;;;;;17.07;46.00;99480.91;4989965;28;102647;-82
2021/09/06 08:25:04;;;;;;;;;0.33;0.33;;;;;17.07;46.26;99485.53;4964754;28;103924;-82
2021/09/06 08:27:33;;;;;;;;;1.00;1.00;;;;;17.10;46.63;99485.97;4966377;28;102417;-82
2021/09/06 08:30:00;;;;;;;;;0.67;0.67;;;;;17.13;45.95;99487.41;4968255;28;103181;-82
2021/09/06 08:32:28;;;;;;;;;1.00;1.00;;;;;17.16;46.40;99481.47;4962436;28;102263;-82
2021/09/06 08:34:55;;;;;;;;;1.00;1.00;;;;;17.16;45.33;99484.22;4952151;28;104279;-82
2021/09/06 08:37:22;;;;;;;;;0.67;0.67;;;;;17.18;45.52;99479.38;4980804;28;102592;-82
2021/09/06 08:39:49;;;;;;;;;0.67;0.67;;;;;17.20;45.85;99486.28;4974109;28;102575;-82
2021/09/06 08:42:16;;;;;;;;;1.00;1.00;;;;;17.20;45.77;99474.53;4983918;28;102672;-82
2021/09/06 08:44:44;;;;;;;;;0.33;0.33;;;;;17.22;46.04;99484.19;4983435;28;104067;-82
2021/09/06 08:47:13;;;;;;;;;1.00;1.00;;;;;17.26;46.19;99490.88;4953475;28;102643;-82
2021/09/06 08:49:41;;;;;;;;;0.00;0.00;;;;;17.28;46.04;99480.56;4969696;28;104660;-82
2021/09/06 08:52:08;;;;;;;;;1.00;1.00;;;;;17.29;45.72;99484.94;4962352;28;102532;-82
2021/09/06 08:54:35;;;;;;;;;0.00;0.00;;;;;17.32;46.04;99489.16;4959292;27;104030;-82
2021/09/06 08:57:02;;;;;;;;;0.00;0.00;;;;;17.34;45.75;99487.00;4977059;28;102288;-82
2021/09/06 08:59:29;;;;;;;;;1.67;1.00;;;;;17.34;46.05;99476.91;4979216;28;105342;-82
2021/09/06 09:01:56;;;;;;;;;1.00;1.00;;;;;17.35;45.82;99475.88;4970819;28;102385;-82
2021/09/06 09:04:28;;;;;;;;;1.33;1.00;;;;;17.38;45.86;99474.59;4979724;27;104091;-82
2021/09/06 09:06:57;;;;;;;;;1.33;1.33;;;;;17.39;45.62;99487.19;4971347;27;102633;-82
2021/09/06 09:09:27;;;;;;;;;0.00;0.00;;;;;17.41;45.90;99487.81;4969867;28;102793;-82
2021/09/06 09:12:09;;;;;;;;;1.00;1.00;;;;;17.40;45.46;99480.66;4955074;28;102281;-82
2021/09/06 09:14:38;;;;;;;;;1.00;1.00;;;;;17.42;45.84;99484.84;4942779;28;110108;-82
2021/09/06 09:17:05;;;;;;;;;1.33;1.00;;;;;17.43;45.33;99480.22;4972852;28;102399;-82
2021/09/06 09:19:33;;;;;;;;;0.33;0.33;;;;;17.46;45.92;99485.25;4983779;28;102542;-82
2021/09/06 09:22:05;;;;;;;;;1.00;1.00;;;;;17.48;45.76;99487.75;4964147;28;104416;-82
2021/09/06 09:24:32;;;;;;;;;0.33;0.33;;;;;17.49;45.66;99479.31;4969486;28;108627;-82
2021/09/06 09:27:02;;;;;;;;;1.00;1.00;;;;;17.48;46.43;99471.31;4977312;28;102550;-82
2021/09/06 09:29:29;;;;;;;;;0.00;0.00;;;;;17.51;45.42;99476.38;4972054;28;102574;-82
2021/09/06 09:31:57;;;;;;;;;1.00;1.00;;;;;17.53;45.89;99474.22;4965110;28;112357;-82
2021/09/06 09:34:24;;;;;;;;;0.00;0.00;;;;;17.53;45.78;99464.13;4978712;28;104214;-82
2021/09/06 09:36:54;;;;;;;;;1.00;1.00;;;;;17.55;45.91;99472.97;4978291;28;102934;-82
2021/09/06 09:39:21;;;;;;;;;1.00;0.00;;;;;17.56;45.84;99468.34;4970284;28;102652;-82
2021/09/06 09:41:49;;;;;;;;;0.00;0.00;;;;;17.56;45.87;99469.16;4989976;28;102518;-82
2021/09/06 09:44:20;;;;;;;;;2.00;0.67;;;;;17.58;45.94;99478.00;4977508;28;104081;-82
2021/09/06 09:46:54;;;;;;;;;0.33;0.33;;;;;17.59;45.61;99462.44;4952870;28;104047;-82
2021/09/06 09:49:21;;;;;;;;;0.33;0.00;;;;;17.61;45.96;99465.75;4968372;28;103111;-82
2021/09/06 09:51:49;;;;;;;;;0.33;0.00;;;;;17.62;45.91;99467.44;4967385;28;102344;-82
2021/09/06 09:54:16;;;;;;;;;1.00;1.00;;;;;17.63;45.97;99475.44;4976194;28;104322;-82
2021/09/06 09:56:43;;;;;;;;;0.00;0.00;;;;;17.64;45.66;99468.06;4979478;28;103415;-82
2021/09/06 09:59:11;;;;;;;;;0.00;0.00;;;;;17.66;46.59;99468.66;4982523;28;102610;-82
2021/09/06 10:01:43;;;;;;;;;0.00;0.00;;;;;17.66;45.76;99458.56;4972470;28;102553;-82
2021/09/06 10:04:12;;;;;;;;;1.00;1.00;;;;;17.67;45.68;99462.13;4978024;28;104034;-82
2021/09/06 10:06:39;;;;;;;;;2.00;1.00;;;;;17.68;46.44;99464.66;4951134;28;102819;-83
2021/09/06 10:09:06;;;;;;;;;0.00;0.00;;;;;17.69;46.74;99463.59;4970011;28;102662;-82
2021/09/06 10:11:39;;;;;;;;;0.67;0.67;;;;;17.70;45.76;99467.16;4981882;28;102548;-82
2021/09/06 10:14:22;;;;;;;;;1.00;1.00;;;;;17.71;46.31;99461.47;4943248;28;108560;-82
2021/09/06 10:17:06;;;;;;;;;0.00;0.00;;;;;17.73;46.72;99458.50;4976469;28;102292;-82
2021/09/06 10:19:49;;;;;;;;;1.00;1.00;;;;;17.73;46.86;99448.41;4979696;28;103494;-82
2021/09/06 10:22:23;;;;;;;;;1.00;0.00;;;;;17.75;45.78;99442.69;4968367;28;102251;-82
2021/09/06 10:24:57;;;;;;;;;1.00;1.00;;;;;17.75;46.80;99446.28;4975639;28;104138;-82
2021/09/06 10:27:25;;;;;;;;;0.33;0.33;;;;;17.78;46.52;99456.78;4959162;28;102683;-82
2021/09/06 10:30:14;;;;;;;;;1.33;1.00;;;;;17.80;46.33;99451.91;4971615;28;102664;-82
2021/09/06 10:32:43;;;;;;;;;0.00;0.00;;;;;17.81;46.77;99445.38;4967071;28;102663;-82
2021/09/06 10:35:21;;;;;;;;;1.67;1.00;;;;;17.82;46.48;99447.06;4978466;28;104098;-82
2021/09/06 10:38:05;;;;;;;;;1.00;1.00;;;;;17.84;46.22;99439.44;4956521;28;104635;-82
2021/09/06 10:40:34;;;;;;;;;0.00;0.00;;;;;17.86;45.79;99439.22;4981139;28;102385;-82
2021/09/06 10:43:27;;;;;;;;;1.00;1.00;;;;;17.87;46.13;99442.78;4960999;28;102607;-82
2021/09/06 10:45:54;;;;;;;;;0.00;0.00;;;;;17.88;46.71;99439.00;4979705;28;109586;-82
2021/09/06 10:48:24;;;;;;;;;0.00;0.00;;;;;17.89;46.18;99446.13;4962314;28;103203;-82
2021/09/06 10:50:52;;;;;;;;;1.00;0.00;;;;;17.90;46.79;99443.16;4958376;28;103367;-82
2021/09/06 10:53:20;;;;;;;;;0.00;0.00;;;;;17.92;46.30;99438.28;4985640;28;102673;-82
2021/09/06 10:55:54;;;;;;;;;0.33;0.33;;;;;17.93;46.17;99436.38;4973911;28;104070;-82
2021/09/06 10:58:21;;;;;;;;;0.00;0.00;;;;;17.95;46.39;99434.28;4970543;28;102311;-82
2021/09/06 11:00:52;;;;;;;;;0.67;0.67;;;;;17.96;46.86;99436.78;4979261;28;103267;-82
2021/09/06 11:03:21;;;;;;;;;0.00;0.00;;;;;17.97;46.76;99432.13;4947039;28;102322;-82
2021/09/06 11:05:55;;;;;;;;;0.00;0.00;;;;;17.98;46.49;99433.81;4955355;28;104229;-82
2021/09/06 11:08:27;;;;;;;;;1.00;1.00;;;;;17.99;46.80;99430.84;4988066;28;102411;-82
2021/09/06 11:10:57;;;;;;;;;0.00;0.00;;;;;18.00;46.72;99423.47;4942993;28;102203;-82
2021/09/06 11:13:34;;;;;;;;;0.00;0.00;;;;;18.01;46.92;99425.16;4973438;28;102222;-82
2021/09/06 11:16:04;;;;;;;;;1.00;0.00;;;;;18.03;47.28;99425.75;4978980;28;103339;-82
2021/09/06 11:18:37;;;;;;;;;0.00;0.00;;;;;18.04;46.77;99421.97;4954803;28;102725;-82
2021/09/06 11:21:05;;;;;;;;;1.67;1.00;;;;;18.05;46.90;99412.69;4961867;28;102643;-82
2021/09/06 11:23:44;;;;;;;;;0.00;0.00;;;;;18.07;47.46;99425.06;4970117;28;102598;-82
2021/09/06 11:26:28;;;;;;;;;1.00;1.00;;;;;18.09;47.29;99416.63;4968954;28;108898;-82
2021/09/06 11:28:55;;;;;;;;;1.00;1.00;;;;;18.11;47.79;99414.50;4960982;28;102484;-82